Time;durP1;ratioP1;P1;durP2;ratioP2;P2;SDS_P1;SDS_P2;PMS_P1;PMS_P2;Temp;Humidity;BMP_temperature;BMP_pressure;BME280_temperature;BME280_humidity;BME280_pressure;Samples;Min_cycle;Max_cycle;Signal;HPM_P1;HPM_P2
2021/12/19 00:11:06;;;;;;;1.88;1.77;;;;;;;4.11;92.46;101104.09;2282054;70;20361;-78
2021/12/19 00:14:08;;;;;;;1.86;1.71;;;;;;;4.12;92.46;101109.31;2283681;70;20388;-78
2021/12/19 00:17:12;;;;;;;1.86;1.76;;;;;;;4.10;92.46;101100.66;2280765;67;23034;-78
2021/12/19 00:20:15;;;;;;;1.84;1.74;;;;;;;4.12;92.58;101106.75;2281866;70;20326;-79
2021/12/19 00:23:38;;;;;;;2.08;1.74;;;;;;;4.11;92.50;101099.84;2281781;70;20473;-77
2021/12/19 00:26:41;;;;;;;1.79;1.63;;;;;;;4.13;92.49;101092.19;2283606;70;21229;-78
2021/12/19 00:29:44;;;;;;;1.67;1.58;;;;;;;4.13;92.53;101097.34;2281733;70;20349;-78
2021/12/19 00:35:56;;;;;;;1.70;1.60;;;;;;;4.12;92.57;101096.47;2288785;70;21416;-78
2021/12/19 00:38:59;;;;;;;2.00;1.90;;;;;;;4.12;92.59;101090.44;2287793;70;20329;-78
2021/12/19 00:42:07;;;;;;;1.60;1.50;;;;;;;4.13;92.57;101092.19;2288082;70;20353;-78
2021/12/19 00:45:30;;;;;;;1.48;1.38;;;;;;;4.11;92.61;101081.84;2288582;70;20325;-78
2021/12/19 00:48:40;;;;;;;1.56;1.40;;;;;;;4.10;92.58;101077.53;2289347;70;20183;-78
2021/12/19 00:51:43;;;;;;;1.42;1.33;;;;;;;4.12;92.56;101073.34;2289102;70;20359;-78
2021/12/19 00:54:45;;;;;;;1.55;1.45;;;;;;;4.11;92.57;101076.72;2288991;70;20317;-78
2021/12/19 00:57:49;;;;;;;1.40;1.29;;;;;;;4.09;92.63;101075.75;2288079;70;20293;-79
2021/12/19 01:00:53;;;;;;;1.48;1.38;;;;;;;4.11;92.71;101074.13;2288527;70;20293;-79
2021/12/19 01:03:55;;;;;;;1.81;1.71;;;;;;;4.12;92.60;101075.91;2288746;70;20415;-78
2021/12/19 01:07:01;;;;;;;1.33;1.23;;;;;;;4.09;92.52;101073.19;2288021;70;20411;-78
2021/12/19 01:10:07;;;;;;;1.86;1.40;;;;;;;4.09;92.45;101070.63;2289157;70;20383;-79
2021/12/19 01:13:11;;;;;;;1.09;1.00;;;;;;;4.08;92.38;101075.69;2288385;70;20333;-78
2021/12/19 01:16:15;;;;;;;1.33;1.23;;;;;;;4.06;92.36;101064.44;2287235;70;20386;-78
2021/12/19 01:19:18;;;;;;;1.60;1.50;;;;;;;4.06;92.33;101061.88;2289408;70;20297;-79
2021/12/19 01:22:21;;;;;;;1.70;1.60;;;;;;;4.06;92.33;101060.19;2288229;70;20329;-79
2021/12/19 01:25:23;;;;;;;3.35;1.21;;;;;;;4.05;92.34;101057.56;2287591;70;20849;-78
2021/12/19 01:28:27;;;;;;;2.01;1.60;;;;;;;4.01;92.30;101061.66;2287759;70;21071;-78
2021/12/19 01:31:29;;;;;;;1.92;1.60;;;;;;;4.01;92.57;101059.09;2286801;67;21344;-79
2021/12/19 01:34:33;;;;;;;1.63;1.52;;;;;;;4.04;92.67;101066.06;2287689;70;20325;-76
2021/12/19 01:37:35;;;;;;;1.41;1.20;;;;;;;4.06;92.72;101067.91;2285842;70;20297;-78
2021/12/19 01:40:38;;;;;;;1.58;1.48;;;;;;;4.05;92.69;101065.25;2291741;70;20319;-80
2021/12/19 01:43:41;;;;;;;1.25;1.15;;;;;;;4.04;92.73;101060.94;2296046;70;20294;-81
2021/12/19 01:46:46;;;;;;;1.30;1.20;;;;;;;4.04;92.74;101059.25;2297263;67;23705;-80
2021/12/19 01:49:49;;;;;;;1.55;1.29;;;;;;;4.02;92.82;101042.88;2297505;70;20293;-80
2021/12/19 01:52:51;;;;;;;1.90;1.74;;;;;;;4.04;92.87;101046.38;2295900;70;20399;-80
2021/12/19 01:55:55;;;;;;;1.31;1.23;;;;;;;4.03;92.87;101044.63;2292795;70;20368;-80
2021/12/19 01:58:59;;;;;;;1.88;1.45;;;;;;;4.02;92.73;101047.13;2293170;70;20313;-80
2021/12/19 02:02:02;;;;;;;1.36;1.26;;;;;;;4.01;92.78;101035.97;2291704;67;25288;-79
2021/12/19 02:05:05;;;;;;;1.34;1.24;;;;;;;4.02;92.78;101035.16;2289681;70;21079;-78
2021/12/19 02:08:09;;;;;;;1.50;1.40;;;;;;;4.01;92.71;101038.53;2289211;70;20317;-78
2021/12/19 02:11:13;;;;;;;6.07;1.61;;;;;;;4.00;92.71;101041.91;2290867;70;20341;-78
2021/12/19 02:14:16;;;;;;;1.42;1.33;;;;;;;3.97;92.59;101033.19;2289214;70;20305;-78
2021/12/19 02:17:18;;;;;;;1.50;1.40;;;;;;;3.98;92.62;101038.41;2289649;67;30080;-78
2021/12/19 02:20:23;;;;;;;1.74;1.50;;;;;;;3.98;92.53;101033.25;2289089;70;20293;-78
2021/12/19 02:23:28;;;;;;;1.40;1.30;;;;;;;3.95;92.47;101030.53;2289390;70;20298;-78
2021/12/19 02:26:31;;;;;;;2.44;1.40;;;;;;;3.94;92.47;101032.19;2289861;70;20985;-78
2021/12/19 02:29:34;;;;;;;1.70;1.60;;;;;;;3.91;92.24;101041.44;2288870;70;20359;-79
2021/12/19 02:32:39;;;;;;;1.88;1.74;;;;;;;3.88;92.39;101031.03;2287524;67;20678;-78
2021/12/19 02:35:49;;;;;;;1.64;1.54;;;;;;;3.88;92.47;101033.59;2291410;70;20398;-79
2021/12/19 02:48:56;;;;;;;1.63;1.52;;;;;;;3.81;92.52;101036.69;2289020;70;20325;-79
2021/12/19 02:52:00;;;;;;;1.92;1.83;;;;;;;3.79;92.73;101033.16;2290224;70;20317;-78
2021/12/19 02:55:04;;;;;;;1.91;1.80;;;;;;;3.79;92.81;101043.44;2291363;70;20418;-79
2021/12/19 02:58:07;;;;;;;1.95;1.84;;;;;;;3.82;92.88;101035.88;2289175;70;20314;-78
2021/12/19 03:01:16;;;;;;;1.60;1.50;;;;;;;3.82;92.85;101031.63;2287681;67;23488;-78
2021/12/19 03:04:18;;;;;;;3.10;2.11;;;;;;;3.81;93.03;101026.41;2291300;70;20298;-78
2021/12/19 03:07:24;;;;;;;6.86;2.29;;;;;;;3.81;92.98;101024.72;2291773;70;20163;-78
2021/12/19 03:20:33;;;;;;;2.30;2.15;;;;;;;3.76;93.23;100999.59;2291761;70;20290;-78
2021/12/19 03:23:36;;;;;;;2.41;2.15;;;;;;;3.79;93.21;101000.66;2289489;70;20356;-79
2021/12/19 03:26:39;;;;;;;2.44;2.24;;;;;;;3.77;93.07;100986.84;2291816;70;20727;-78
2021/12/19 03:29:42;;;;;;;2.84;2.13;;;;;;;3.76;93.07;100987.63;2291217;70;20310;-78
2021/12/19 03:32:44;;;;;;;2.14;1.95;;;;;;;3.72;92.87;100982.28;2289988;67;22913;-79
2021/12/19 03:35:47;;;;;;;2.05;1.95;;;;;;;3.67;92.90;100982.06;2289677;70;20855;-79
2021/12/19 03:38:57;;;;;;;2.79;2.04;;;;;;;3.69;93.05;100989.84;2289949;70;20293;-79
2021/12/19 03:42:00;;;;;;;2.06;1.89;;;;;;;3.71;93.04;100985.66;2290759;70;20339;-79
2021/12/19 03:45:06;;;;;;;1.63;1.52;;;;;;;3.69;92.89;100985.59;2290339;70;20372;-79
2021/12/19 03:48:12;;;;;;;1.60;1.50;;;;;;;3.70;92.89;100987.34;2290694;67;25574;-79
2021/12/19 03:51:14;;;;;;;1.60;1.50;;;;;;;3.68;92.55;100998.34;2290954;70;20370;-78
2021/12/19 03:54:17;;;;;;;1.49;1.35;;;;;;;3.64;92.57;100994.75;2289791;70;20325;-78
2021/12/19 03:57:19;;;;;;;1.45;1.14;;;;;;;3.64;92.46;100987.06;2290558;70;20310;-78
2021/12/19 04:00:24;;;;;;;1.40;1.30;;;;;;;3.59;92.20;100996.19;2289746;67;20713;-78
2021/12/19 04:03:29;;;;;;;1.59;1.49;;;;;;;3.58;92.54;100990.19;2290014;70;20310;-79
2021/12/19 04:06:32;;;;;;;1.48;1.38;;;;;;;3.56;92.35;100981.53;2290004;70;20305;-79
2021/12/19 04:09:34;;;;;;;1.60;1.50;;;;;;;3.54;92.52;100985.72;2291107;70;20325;-79
2021/12/19 04:12:37;;;;;;;1.48;1.38;;;;;;;3.56;92.64;100984.09;2290209;70;20375;-78
2021/12/19 04:15:40;;;;;;;1.63;1.52;;;;;;;3.55;92.56;100973.75;2288694;67;26329;-79
2021/12/19 04:18:42;;;;;;;1.40;1.30;;;;;;;3.54;92.55;100972.88;2289642;70;20438;-79
2021/12/19 04:21:46;;;;;;;1.71;1.61;;;;;;;3.53;92.44;100972.81;2291648;70;20398;-79
2021/12/19 04:24:48;;;;;;;2.14;1.30;;;;;;;3.52;92.48;100968.47;2289854;70;20342;-79
2021/12/19 04:27:51;;;;;;;1.60;1.50;;;;;;;3.50;92.50;100965.84;2290629;70;21158;-79
2021/12/19 04:30:54;;;;;;;1.70;1.60;;;;;;;3.49;92.51;100965.75;2290037;67;26128;-79
2021/12/19 04:33:57;;;;;;;1.59;1.49;;;;;;;3.44;92.31;100962.09;2290408;70;20353;-78
2021/12/19 04:37:08;;;;;;;1.83;1.73;;;;;;;3.43;92.65;100952.63;2288869;70;20281;-79
2021/12/19 04:40:24;;;;;;;1.90;1.80;;;;;;;3.45;92.69;100953.59;2289111;70;20293;-79
2021/12/19 04:53:34;;;;;;;2.19;1.99;;;;;;;3.45;92.79;100941.63;2290571;70;20301;-79
2021/12/19 04:56:47;;;;;;;2.14;1.98;;;;;;;3.45;92.83;100946.75;2289322;70;20297;-78
2021/12/19 04:59:54;;;;;;;1.86;1.73;;;;;;;3.44;92.77;100939.88;2290735;70;20413;-79
2021/12/19 05:03:03;;;;;;;2.22;2.13;;;;;;;3.45;92.91;100940.75;2288950;67;23840;-79
2021/12/19 05:06:19;;;;;;;2.19;2.01;;;;;;;3.43;92.88;100938.09;2292065;70;20345;-78
2021/12/19 05:16:05;;;;;;;2.81;2.47;;;;;;;3.45;93.06;100931.34;2290353;67;22455;-79
2021/12/19 05:19:21;;;;;;;2.78;2.56;;;;;;;3.47;93.17;100918.59;2290795;70;20329;-78
2021/12/19 05:22:27;;;;;;;2.67;2.47;;;;;;;3.46;93.07;100919.41;2288852;70;20859;-78
2021/12/19 05:25:30;;;;;;;2.60;2.40;;;;;;;3.47;93.19;100922.03;2290962;70;20293;-79
2021/12/19 05:28:33;;;;;;;2.78;2.58;;;;;;;3.47;93.15;100921.16;2291378;70;20313;-79
2021/12/19 05:31:36;;;;;;;2.21;2.11;;;;;;;3.46;93.07;100915.16;2289614;67;25698;-79
2021/12/19 05:34:38;;;;;;;1.86;1.70;;;;;;;3.46;92.96;100921.97;2290701;70;21052;-79
2021/12/19 05:47:50;;;;;;;1.76;1.66;;;;;;;3.40;92.92;100921.66;2289265;67;22737;-79
2021/12/19 05:50:53;;;;;;;1.61;1.48;;;;;;;3.40;92.95;100919.97;2290177;70;20321;-78
2021/12/19 05:53:56;;;;;;;1.55;1.45;;;;;;;3.40;92.77;100921.66;2290055;70;20317;-79
2021/12/19 05:57:00;;;;;;;1.56;1.46;;;;;;;3.36;92.86;100909.47;2290405;70;20293;-79
2021/12/19 06:00:09;;;;;;;1.35;1.25;;;;;;;3.30;92.74;100910.06;2288971;70;20329;-79
2021/12/19 06:03:11;;;;;;;1.54;1.44;;;;;;;3.31;93.00;100893.84;2290505;67;23221;-79
2021/12/19 06:06:14;;;;;;;1.30;1.20;;;;;;;3.32;92.79;100908.44;2290003;70;20147;-79
2021/12/19 06:09:17;;;;;;;1.40;1.30;;;;;;;3.31;92.89;100905.00;2291222;70;20396;-79
2021/12/19 06:12:20;;;;;;;1.41;1.31;;;;;;;3.31;92.71;100909.25;2290810;70;21175;-79
2021/12/19 06:15:22;;;;;;;1.02;1.02;;;;;;;3.29;92.53;100905.75;2289993;67;22471;-78
2021/12/19 06:18:25;;;;;;;1.30;1.20;;;;;;;3.29;92.53;100898.03;2290138;70;20359;-79
2021/12/19 06:21:27;;;;;;;1.27;1.17;;;;;;;3.24;92.47;100897.81;2291465;70;20309;-78
2021/12/19 06:24:32;;;;;;;2.01;1.81;;;;;;;3.25;92.47;100893.56;2290383;70;20298;-79
2021/12/19 06:27:35;;;;;;;2.38;2.20;;;;;;;3.25;92.52;100893.56;2290908;70;20379;-78
2021/12/19 06:30:37;;;;;;;2.15;1.98;;;;;;;3.22;92.51;100884.00;2289882;67;25555;-78
2021/12/19 06:33:40;;;;;;;2.40;2.20;;;;;;;3.23;92.67;100880.66;2290918;70;20874;-79
2021/12/19 06:36:43;;;;;;;2.35;2.15;;;;;;;3.24;92.60;100878.97;2290288;70;20380;-78
2021/12/19 06:39:46;;;;;;;2.41;2.29;;;;;;;3.22;92.64;100866.03;2290678;70;20766;-79
2021/12/19 06:42:50;;;;;;;2.54;2.35;;;;;;;3.23;92.80;100872.97;2289622;70;21533;-79
2021/12/19 06:45:55;;;;;;;2.55;2.35;;;;;;;3.22;92.97;100870.28;2291145;67;22248;-79
2021/12/19 06:48:58;;;;;;;2.50;2.34;;;;;;;3.22;93.07;100862.59;2292326;70;20713;-79
2021/12/19 06:52:00;;;;;;;3.00;2.79;;;;;;;3.24;93.25;100863.56;2289265;70;20356;-79
2021/12/19 06:55:04;;;;;;;2.92;2.70;;;;;;;3.24;93.13;100863.56;2290468;70;21336;-78
2021/12/19 06:58:06;;;;;;;2.89;2.69;;;;;;;3.24;93.24;100858.44;2292362;70;20325;-78
2021/12/19 07:01:09;;;;;;;3.17;2.88;;;;;;;3.25;93.16;100852.50;2290064;68;22279;-79
2021/12/19 07:04:11;;;;;;;2.81;2.63;;;;;;;3.25;93.05;100849.94;2292704;70;20355;-79
2021/12/19 07:07:14;;;;;;;2.84;2.61;;;;;;;3.24;93.07;100851.63;2289621;70;20337;-79
2021/12/19 07:10:17;;;;;;;3.42;2.51;;;;;;;3.22;92.89;100849.75;2289601;70;20302;-78
2021/12/19 07:13:22;;;;;;;2.69;2.49;;;;;;;3.22;92.96;100842.94;2290380;70;20341;-79
2021/12/19 07:16:25;;;;;;;4.01;3.28;;;;;;;3.21;92.84;100840.31;2289952;67;21987;-80
2021/12/19 07:19:28;;;;;;;3.67;3.33;;;;;;;3.20;92.88;100843.69;2291796;70;20324;-80
2021/12/19 07:22:30;;;;;;;3.40;3.13;;;;;;;3.22;92.79;100840.38;2291097;70;20293;-79
2021/12/19 07:25:33;;;;;;;3.34;3.04;;;;;;;3.24;92.84;100841.34;2289130;70;20302;-78
2021/12/19 07:28:36;;;;;;;3.64;3.34;;;;;;;3.28;92.83;100840.69;2289197;70;20313;-78
2021/12/19 07:31:39;;;;;;;3.60;3.34;;;;;;;3.30;92.76;100846.78;2295186;67;23489;-81
2021/12/19 07:34:43;;;;;;;3.95;3.65;;;;;;;3.31;92.65;100850.22;2291831;70;20366;-78
2021/12/19 07:37:48;;;;;;;4.69;4.07;;;;;;;3.28;92.45;100861.22;2289876;70;20285;-80
2021/12/19 07:40:54;;;;;;;3.10;2.90;;;;;;;3.29;92.64;100864.66;2317333;70;20250;-81
2021/12/19 07:44:10;;;;;;;2.97;2.78;;;;;;;3.29;92.55;100870.69;2303525;70;20290;-82
2021/12/19 07:52:22;;;;;;;3.53;2.76;;;;;;;3.29;92.24;100872.38;2231441;72;20409;-80
2021/12/19 07:55:29;;;;;;;3.33;3.03;;;;;;;3.23;92.17;100867.81;2226820;72;20819;-80
2021/12/19 07:58:52;;;;;;;;;;;;;;;3.22;92.31;100855.78;2228977;72;20179;-80
2021/12/19 08:02:27;;;;;;;3.10;2.90;;;;;;;3.23;92.27;100852.44;2230158;72;20077;-81
2021/12/19 08:06:15;;;;;;;2.24;2.14;;;;;;;3.23;92.09;100860.13;2222197;72;20365;-80
2021/12/19 08:09:58;;;;;;;1.86;1.76;;;;;;;3.21;91.94;100859.16;2217708;72;20297;-78
2021/12/19 08:13:06;;;;;;;2.14;1.98;;;;;;;3.18;91.51;100858.13;2216850;72;20374;-77
2021/12/19 08:16:22;;;;;;;3.49;2.27;;;;;;;3.16;91.65;100852.91;2219686;68;125195;-79
2021/12/19 08:30:13;;;;;;;1.96;1.81;;;;;;;3.24;91.63;100850.75;2277442;69;20340;-78
2021/12/19 08:34:17;;;;;;;2.22;2.13;;;;;;;3.27;91.51;100859.47;2284208;67;22603;-78
2021/12/19 08:37:28;;;;;;;1.91;1.81;;;;;;;3.29;91.45;100852.72;2274765;70;20321;-80
2021/12/19 08:41:02;;;;;;;2.01;1.91;;;;;;;3.31;91.38;100858.78;2284582;70;20313;-78
2021/12/19 08:44:18;;;;;;;2.30;2.10;;;;;;;3.33;91.29;100852.03;2280232;70;20290;-79
2021/12/19 08:47:34;;;;;;;2.16;1.92;;;;;;;3.33;91.22;100844.34;2281693;70;20337;-78
2021/12/19 08:50:43;;;;;;;2.15;2.05;;;;;;;3.32;91.21;100849.41;2282214;70;20343;-78
2021/12/19 08:53:52;;;;;;;2.03;1.92;;;;;;;3.34;91.23;100837.53;2272845;70;20427;-79
2021/12/19 08:57:05;;;;;;;2.94;2.72;;;;;;;3.35;91.14;100841.84;2281948;70;20347;-78
2021/12/19 09:00:18;;;;;;;2.28;2.17;;;;;;;3.31;90.97;100839.94;2280490;70;20366;-78
2021/12/19 09:03:40;;;;;;;;;;;;;;;3.29;90.76;100849.25;2286587;70;20869;-78
2021/12/19 09:06:56;;;;;;;2.35;2.15;;;;;;;3.24;91.01;100843.03;2272685;70;20103;-80
2021/12/19 09:10:19;;;;;;;2.56;2.36;;;;;;;3.27;91.20;100843.19;2270092;70;20321;-80
2021/12/19 09:14:02;;;;;;;2.05;1.95;;;;;;;3.30;91.21;100836.50;2250385;71;20513;-80
2021/12/19 09:17:21;;;;;;;2.31;2.21;;;;;;;3.37;91.26;100839.34;2236411;71;20326;-80
2021/12/19 09:21:17;;;;;;;2.59;2.39;;;;;;;3.41;91.33;100836.13;2232042;72;20363;-81
2021/12/19 09:24:57;;;;;;;2.35;2.25;;;;;;;3.43;91.25;100837.97;2231689;72;20343;-81
2021/12/19 10:43:57;;;;;;;3.56;3.26;;;;;;;4.07;89.37;100761.25;2278175;69;21764;-79
2021/12/19 10:47:28;;;;;;;3.59;3.29;;;;;;;4.14;89.12;100750.44;2279975;70;20329;-79
2021/12/19 10:51:20;;;;;;;3.51;3.31;;;;;;;4.17;88.75;100736.84;2269668;70;20986;-79
2021/12/19 10:55:03;;;;;;;3.61;3.04;;;;;;;4.19;88.21;100728.38;2268068;70;20330;-79
2021/12/19 10:58:37;;;;;;;4.75;4.24;;;;;;;4.18;87.71;100731.75;2249035;71;20693;-79
2021/12/19 11:02:51;;;;;;;3.54;3.24;;;;;;;4.23;87.67;100732.81;2247133;71;21052;-79
2021/12/19 11:06:51;;;;;;;3.16;2.86;;;;;;;4.29;87.54;100713.31;2227908;72;20356;-79
2021/12/19 11:10:31;;;;;;;3.81;3.41;;;;;;;4.33;87.25;100713.53;2225614;72;20358;-79
2021/12/19 11:13:54;;;;;;;4.19;3.65;;;;;;;4.34;87.04;100710.16;2233901;71;20747;-79
2021/12/19 11:36:30;;;;;;;2.72;2.53;;;;;;;4.52;85.52;100680.03;2268149;70;20319;-79
2021/12/19 11:39:58;;;;;;;3.22;3.03;;;;;;;4.50;85.40;100673.09;2259990;71;20291;-79
2021/12/19 11:43:19;;;;;;;4.68;3.84;;;;;;;4.52;85.24;100671.44;2253306;71;20388;-79
2021/12/19 11:51:04;;;;;;;4.59;3.91;;;;;;;4.51;85.14;100650.00;2255515;71;20191;-79
2021/12/19 11:54:31;;;;;;;4.30;3.53;;;;;;;4.52;84.98;100644.03;2255352;71;20339;-79
2021/12/19 11:58:12;;;;;;;4.10;3.39;;;;;;;4.51;84.68;100637.16;2255490;71;20417;-79
2021/12/19 12:01:29;;;;;;;4.41;3.22;;;;;;;4.59;85.12;100644.28;2242937;71;20170;-79
2021/12/19 12:04:38;;;;;;;4.70;3.83;;;;;;;4.65;85.29;100640.22;2254991;71;20398;-79
2021/12/19 12:08:16;;;;;;;4.68;3.81;;;;;;;4.67;84.58;100633.47;2254626;71;20364;-79
2021/12/19 12:11:38;;;;;;;4.15;3.59;;;;;;;4.70;84.43;100636.16;2254825;70;20418;-78
2021/12/19 12:14:54;;;;;;;4.43;4.03;;;;;;;4.77;84.52;100630.44;2251659;71;20319;-78
2021/12/19 12:18:48;;;;;;;5.24;4.07;;;;;;;4.79;83.88;100623.66;2251034;71;20756;-78
2021/12/19 12:26:22;;;;;;;;;;;;;;;4.77;83.34;100604.69;2276477;70;20853;-78
2021/12/19 12:29:28;;;;;;;3.84;3.47;;;;;;;4.70;83.02;100592.44;2278490;70;20766;-78
2021/12/19 12:32:35;;;;;;;3.92;3.60;;;;;;;4.74;83.69;100588.28;2275849;67;75359;-78
2021/12/19 12:35:49;;;;;;;5.74;4.10;;;;;;;4.81;83.87;100572.25;2277844;70;20444;-78
2021/12/19 12:38:55;;;;;;;4.57;4.16;;;;;;;4.89;83.88;100569.97;2277613;70;20310;-77
2021/12/19 12:42:04;;;;;;;5.86;5.20;;;;;;;4.95;83.77;100565.91;2272999;70;20388;-78
2021/12/19 12:45:07;;;;;;;5.94;4.71;;;;;;;4.98;83.30;100555.72;2276331;70;20783;-78
2021/12/19 12:48:11;;;;;;;5.82;5.13;;;;;;;5.05;83.52;100555.16;2277583;67;22849;-77
2021/12/19 12:51:48;;;;;;;8.35;5.39;;;;;;;5.14;83.63;100559.75;2282769;70;20439;-78
2021/12/19 12:55:03;;;;;;;6.16;4.84;;;;;;;5.22;83.50;100547.16;2277221;70;20388;-78
2021/12/19 12:58:21;;;;;;;6.61;5.46;;;;;;;5.25;83.10;100539.53;2279540;70;20283;-80
2021/12/19 13:02:25;;;;;;;6.96;5.20;;;;;;;5.28;82.90;100537.06;2282771;70;21199;-80
2021/12/19 13:05:58;;;;;;;6.91;4.93;;;;;;;5.27;82.56;100532.75;2284619;70;20517;-79
2021/12/19 13:09:37;;;;;;;8.02;4.71;;;;;;;5.26;82.50;100526.72;2284212;70;20812;-80
2021/12/19 13:16:27;;;;;;;6.76;5.07;;;;;;;5.24;82.25;100515.50;2277660;69;50199;-79
2021/12/19 13:24:46;;;;;;;6.04;5.43;;;;;;;5.27;82.10;100514.72;2280656;70;21111;-79
2021/12/19 13:28:40;;;;;;;7.32;5.59;;;;;;;5.30;82.03;100502.81;2281525;70;20822;-79
2021/12/19 13:32:22;;;;;;;9.23;6.31;;;;;;;5.30;81.80;100504.53;2277720;67;53077;-79
2021/12/19 13:36:13;;;;;;;7.04;5.99;;;;;;;5.29;81.79;100493.34;2275439;70;20299;-78
2021/12/19 13:40:05;;;;;;;9.11;6.72;;;;;;;5.34;81.78;100490.91;2280127;70;20344;-79
2021/12/19 13:43:21;;;;;;;9.70;7.49;;;;;;;5.33;81.61;100499.47;2282110;70;20885;-79
2021/12/19 13:46:37;;;;;;;7.76;6.78;;;;;;;5.33;81.85;100474.59;2276910;67;126194;-79
2021/12/19 13:49:41;;;;;;;9.07;7.68;;;;;;;5.40;82.18;100478.28;2280612;70;20319;-79
2021/12/19 13:52:53;;;;;;;9.89;8.01;;;;;;;5.41;81.75;100480.03;2281066;70;20867;-79
2021/12/19 13:56:13;;;;;;;12.86;9.01;;;;;;;5.38;80.91;100477.31;2284081;70;20243;-79
2021/12/19 13:59:41;;;;;;;11.66;9.23;;;;;;;5.38;80.95;100467.00;2284321;70;20344;-80
2021/12/19 14:02:58;;;;;;;9.90;7.78;;;;;;;5.39;81.52;100456.78;2278693;70;20313;-80
2021/12/19 14:06:29;;;;;;;9.91;8.21;;;;;;;5.36;81.21;100459.25;2270695;70;20325;-80
2021/12/19 14:09:48;;;;;;;12.25;8.70;;;;;;;5.34;81.08;100463.47;2278180;70;20283;-80
2021/12/19 14:13:14;;;;;;;10.90;8.91;;;;;;;5.33;80.99;100460.84;2280294;70;20412;-80
2021/12/19 14:16:38;;;;;;;12.44;9.01;;;;;;;5.31;80.72;100459.91;2278924;70;20311;-80
2021/12/19 14:19:51;;;;;;;10.26;8.74;;;;;;;5.29;80.89;100452.16;2278149;70;20287;-80
2021/12/19 14:23:17;;;;;;;13.34;9.65;;;;;;;5.30;81.23;100440.16;2269480;70;20871;-80
2021/12/19 14:27:09;;;;;;;13.51;9.25;;;;;;;5.29;81.04;100444.41;2262640;70;20488;-80
2021/12/19 14:30:16;;;;;;;12.04;8.55;;;;;;;5.29;81.53;100452.16;2260372;70;20370;-80
2021/12/19 14:33:50;;;;;;;10.86;9.27;;;;;;;5.29;81.67;100435.81;2255250;69;232759;-80
2021/12/19 14:37:23;;;;;;;10.30;8.84;;;;;;;5.27;81.64;100435.78;2257753;70;20349;-80
2021/12/19 14:41:03;;;;;;;11.46;9.09;;;;;;;5.27;81.69;100433.19;2262139;71;20448;-80
2021/12/19 14:44:22;;;;;;;10.01;7.66;;;;;;;5.28;81.82;100439.22;2263099;70;20378;-80
2021/12/19 14:47:45;;;;;;;9.27;7.63;;;;;;;5.29;82.01;100435.81;2254435;71;20391;-80
2021/12/19 14:51:11;;;;;;;10.26;7.46;;;;;;;5.28;81.93;100431.50;2256246;70;20302;-80
2021/12/19 14:54:32;;;;;;;9.14;7.43;;;;;;;5.28;82.00;100429.78;2250632;71;20378;-80
2021/12/19 14:58:03;;;;;;;9.39;6.72;;;;;;;5.27;81.98;100429.75;2225313;72;20430;-80
2021/12/19 15:05:35;;;;;;;7.80;6.29;;;;;;;5.23;82.04;100412.47;2281178;69;20682;-80
2021/12/19 15:09:06;;;;;;;8.05;6.15;;;;;;;5.19;82.18;100406.31;2282579;70;20638;-79
2021/12/19 15:12:27;;;;;;;8.68;5.95;;;;;;;5.19;82.24;100410.59;2279727;70;20388;-80
2021/12/19 15:15:50;;;;;;;6.29;5.36;;;;;;;5.20;82.23;100412.31;2270754;70;20432;-80
2021/12/19 15:19:18;;;;;;;8.13;5.97;;;;;;;5.16;82.35;100399.34;2262854;70;20705;-80
2021/12/19 15:22:41;;;;;;;7.53;6.07;;;;;;;5.15;82.52;100400.19;2260585;70;20315;-79
2021/12/19 15:26:14;;;;;;;7.63;6.07;;;;;;;5.13;82.63;100395.81;2254167;71;20326;-80
2021/12/19 15:29:35;;;;;;;7.15;5.69;;;;;;;5.12;82.77;100384.63;2256253;71;20316;-80
2021/12/19 15:32:54;;;;;;;8.01;6.21;;;;;;;5.10;83.08;100383.72;2247564;71;21557;-80
2021/12/19 15:36:27;;;;;;;8.60;6.25;;;;;;;5.09;83.25;100381.97;2247140;71;20808;-80
2021/12/19 15:40:06;;;;;;;8.26;6.72;;;;;;;5.08;83.16;100387.94;2246588;71;20301;-79
2021/12/19 15:43:35;;;;;;;9.30;6.50;;;;;;;5.07;83.30;100375.91;2244179;71;20304;-79
2021/12/19 15:46:46;;;;;;;9.73;5.97;;;;;;;5.06;83.38;100366.44;2244319;71;20239;-79
2021/12/19 15:50:11;;;;;;;8.07;5.82;;;;;;;5.03;83.42;100368.91;2238486;71;20323;-79
2021/12/19 15:53:17;;;;;;;7.63;6.56;;;;;;;5.00;83.76;100368.78;2246850;71;20463;-79
2021/12/19 15:56:43;;;;;;;8.93;6.60;;;;;;;4.98;83.92;100359.25;2236254;71;21158;-79
2021/12/19 15:59:52;;;;;;;8.36;6.21;;;;;;;4.94;84.18;100366.00;2235435;71;20486;-78
2021/12/19 16:03:50;;;;;;;9.76;6.63;;;;;;;4.93;84.65;100371.09;2236109;71;20308;-79
2021/12/19 16:07:21;;;;;;;9.24;6.44;;;;;;;4.89;85.15;100372.72;2260891;70;20411;-79
2021/12/19 16:10:42;;;;;;;9.15;6.72;;;;;;;4.91;85.41;100372.75;2260474;70;20347;-79
2021/12/19 16:14:05;;;;;;;7.25;5.65;;;;;;;4.89;85.39;100372.72;2256458;70;20330;-79
2021/12/19 16:17:25;;;;;;;10.99;6.88;;;;;;;4.85;85.27;100363.16;2268925;70;20319;-79
2021/12/19 16:20:52;;;;;;;7.28;6.03;;;;;;;4.85;85.42;100376.00;2269640;70;20334;-79
2021/12/19 16:24:17;;;;;;;9.40;6.07;;;;;;;4.81;85.47;100377.56;2271749;70;20417;-80
2021/12/19 16:27:39;;;;;;;10.84;6.74;;;;;;;4.81;85.59;100364.72;2252716;70;20427;-80
2021/12/19 16:30:45;;;;;;;12.86;6.69;;;;;;;4.81;85.68;100369.84;2275850;70;20320;-80
2021/12/19 16:34:05;;;;;;;8.89;6.82;;;;;;;4.78;85.73;100374.03;2266076;70;20304;-80
2021/12/19 16:37:12;;;;;;;8.85;5.74;;;;;;;4.78;85.81;100369.75;2276616;70;20715;-80
2021/12/19 16:40:20;;;;;;;10.27;6.81;;;;;;;4.77;86.07;100367.13;2274529;70;20308;-79
2021/12/19 16:43:29;;;;;;;10.65;6.72;;;;;;;4.76;86.25;100365.38;2270485;70;20321;-78
2021/12/19 16:46:34;;;;;;;11.13;7.45;;;;;;;4.77;86.36;100370.56;2271897;68;20545;-79
2021/12/19 16:49:37;;;;;;;8.89;6.82;;;;;;;4.77;86.56;100375.72;2275310;70;20319;-79
2021/12/19 16:52:39;;;;;;;7.79;5.80;;;;;;;4.80;86.69;100368.09;2275500;70;20362;-79
2021/12/19 16:55:43;;;;;;;7.96;5.95;;;;;;;4.82;86.54;100360.44;2276908;70;20506;-79
2021/12/19 16:58:46;;;;;;;9.95;6.09;;;;;;;4.80;86.45;100357.81;2276965;70;20311;-79
2021/12/19 17:01:50;;;;;;;7.01;5.84;;;;;;;4.80;86.53;100362.97;2274957;67;21312;-79
2021/12/19 17:04:53;;;;;;;7.75;4.99;;;;;;;4.78;86.72;100358.59;2276452;70;20320;-79
2021/12/19 17:07:55;;;;;;;7.05;5.22;;;;;;;4.73;86.89;100357.56;2276263;70;20789;-79
2021/12/19 17:10:59;;;;;;;7.14;4.99;;;;;;;4.72;86.81;100364.41;2281252;70;20299;-79
2021/12/19 17:14:11;;;;;;;6.69;4.93;;;;;;;4.74;86.73;100356.75;2282303;70;20320;-79
2021/12/19 17:17:14;;;;;;;7.25;4.96;;;;;;;4.74;86.80;100359.31;2279262;67;30081;-80
2021/12/19 17:20:19;;;;;;;7.09;4.68;;;;;;;4.74;86.96;100344.75;2283079;70;20343;-79
2021/12/19 17:23:22;;;;;;;6.41;4.61;;;;;;;4.72;87.04;100342.97;2281594;70;20712;-78
2021/12/19 17:26:25;;;;;;;7.25;4.44;;;;;;;4.69;87.18;100343.72;2282118;70;20295;-79
2021/12/19 17:29:28;;;;;;;6.60;4.38;;;;;;;4.70;87.47;100331.75;2282325;70;20703;-79
2021/12/19 17:32:31;;;;;;;6.18;4.36;;;;;;;4.70;87.73;100334.31;2280460;67;22871;-79
2021/12/19 17:35:34;;;;;;;7.29;4.82;;;;;;;4.69;87.75;100325.72;2282680;70;20314;-79
2021/12/19 17:38:37;;;;;;;5.91;4.47;;;;;;;4.68;87.72;100321.41;2281517;70;20384;-79
2021/12/19 17:41:40;;;;;;;7.20;4.11;;;;;;;4.68;87.47;100323.09;2284157;70;20415;-79
2021/12/19 17:44:43;;;;;;;5.94;3.91;;;;;;;4.64;87.68;100316.94;2283112;70;20924;-79
2021/12/19 17:47:45;;;;;;;4.90;3.78;;;;;;;4.66;87.79;100312.72;2281694;67;22460;-79
2021/12/19 17:50:49;;;;;;;5.71;4.22;;;;;;;4.65;87.90;100320.41;2283032;70;20707;-79
2021/12/19 17:53:52;;;;;;;4.57;4.04;;;;;;;4.68;88.01;100323.09;2282281;70;20340;-79
2021/12/19 17:56:54;;;;;;;5.14;3.91;;;;;;;4.67;87.98;100324.81;2282488;70;21138;-79
2021/12/19 17:59:57;;;;;;;6.18;4.50;;;;;;;4.59;87.92;100333.06;2283667;70;20360;-79
2021/12/19 18:03:01;;;;;;;5.15;4.04;;;;;;;4.51;87.96;100338.81;2281035;67;23830;-79
2021/12/19 18:06:05;;;;;;;5.72;4.59;;;;;;;4.41;87.75;100336.75;2283509;70;20451;-79
2021/12/19 18:09:08;;;;;;;10.05;6.00;;;;;;;4.34;87.76;100337.34;2283565;70;20320;-79
2021/12/19 18:12:10;;;;;;;8.84;5.26;;;;;;;4.29;87.89;100331.16;2283502;70;21194;-79
2021/12/19 18:15:16;;;;;;;6.78;5.44;;;;;;;4.25;88.08;100335.31;2282727;70;20772;-79
2021/12/19 18:18:18;;;;;;;7.10;5.19;;;;;;;4.26;88.39;100333.63;2282983;68;20939;-79
2021/12/19 18:21:23;;;;;;;6.75;4.96;;;;;;;4.25;88.76;100337.88;2282511;70;21223;-79